sensor_id;sensor_type;location;lat;lon;timestamp;pressure;altitude;pressure_sealevel;temperature;humidity
55291;BME280;41155;39.768;2.712;2024-02-28T00:01:16;100719.78;;;12.71;69.67
55291;BME280;41155;39.768;2.712;2024-02-28T00:03:41;100725.22;;;12.76;69.77
55291;BME280;41155;39.768;2.712;2024-02-28T00:06:07;100733.66;;;12.85;69.65
55291;BME280;41155;39.768;2.712;2024-02-28T00:08:32;100720.31;;;12.68;68.78
55291;BME280;41155;39.768;2.712;2024-02-28T00:10:58;100734.44;;;12.80;68.08
55291;BME280;41155;39.768;2.712;2024-02-28T00:13:23;100741.75;;;12.80;67.97
55291;BME280;41155;39.768;2.712;2024-02-28T00:15:50;100746.09;;;12.86;68.57
55291;BME280;41155;39.768;2.712;2024-02-28T00:18:16;100749.91;;;12.85;68.38
55291;BME280;41155;39.768;2.712;2024-02-28T00:20:44;100747.44;;;12.83;68.94
55291;BME280;41155;39.768;2.712;2024-02-28T00:23:10;100749.09;;;12.84;68.56
55291;BME280;41155;39.768;2.712;2024-02-28T00:25:35;100753.69;;;12.79;68.01
55291;BME280;41155;39.768;2.712;2024-02-28T00:28:01;100743.38;;;12.76;66.66
55291;BME280;41155;39.768;2.712;2024-02-28T00:30:26;100749.09;;;12.84;66.75
55291;BME280;41155;39.768;2.712;2024-02-28T00:32:54;100748.75;;;12.71;66.59
55291;BME280;41155;39.768;2.712;2024-02-28T00:35:19;100747.91;;;12.60;65.37
55291;BME280;41155;39.768;2.712;2024-02-28T00:37:45;100756.47;;;12.47;67.12
55291;BME280;41155;39.768;2.712;2024-02-28T00:40:10;100751.84;;;12.37;68.89
55291;BME280;41155;39.768;2.712;2024-02-28T00:42:36;100755.91;;;12.39;70.40
55291;BME280;41155;39.768;2.712;2024-02-28T00:45:02;100758.63;;;12.39;70.86
55291;BME280;41155;39.768;2.712;2024-02-28T00:47:28;100770.78;;;12.37;72.24
55291;BME280;41155;39.768;2.712;2024-02-28T00:49:53;100777.00;;;12.37;73.18
55291;BME280;41155;39.768;2.712;2024-02-28T00:52:19;100753.69;;;12.31;73.14
55291;BME280;41155;39.768;2.712;2024-02-28T00:54:44;100771.03;;;12.30;73.15
55291;BME280;41155;39.768;2.712;2024-02-28T00:57:10;100765.00;;;12.18;73.37
55291;BME280;41155;39.768;2.712;2024-02-28T00:59:35;100766.66;;;12.29;73.25
55291;BME280;41155;39.768;2.712;2024-02-28T01:02:00;100766.66;;;12.24;73.19
55291;BME280;41155;39.768;2.712;2024-02-28T01:04:26;100780.78;;;12.31;73.47
55291;BME280;41155;39.768;2.712;2024-02-28T01:06:52;100789.69;;;12.32;72.96
55291;BME280;41155;39.768;2.712;2024-02-28T01:09:17;100788.38;;;12.34;73.57
55291;BME280;41155;39.768;2.712;2024-02-28T01:11:44;100789.66;;;12.21;73.72
55291;BME280;41155;39.768;2.712;2024-02-28T01:14:09;100807.25;;;12.24;74.17
55291;BME280;41155;39.768;2.712;2024-02-28T01:16:35;100796.13;;;12.20;72.43
55291;BME280;41155;39.768;2.712;2024-02-28T01:19:00;100782.81;;;12.14;68.63
55291;BME280;41155;39.768;2.712;2024-02-28T01:21:26;100794.59;;;12.30;67.41
55291;BME280;41155;39.768;2.712;2024-02-28T01:23:51;100811.44;;;12.42;66.97
55291;BME280;41155;39.768;2.712;2024-02-28T01:26:17;100809.84;;;12.46;66.93
55291;BME280;41155;39.768;2.712;2024-02-28T01:28:45;100813.59;;;12.40;67.28
55291;BME280;41155;39.768;2.712;2024-02-28T01:31:10;100818.78;;;12.47;66.88
55291;BME280;41155;39.768;2.712;2024-02-28T01:33:36;100817.75;;;12.53;67.02
55291;BME280;41155;39.768;2.712;2024-02-28T01:36:01;100807.94;;;12.47;68.17
55291;BME280;41155;39.768;2.712;2024-02-28T01:38:27;100822.84;;;12.44;68.62
55291;BME280;41155;39.768;2.712;2024-02-28T01:40:52;100831.78;;;12.44;69.06
55291;BME280;41155;39.768;2.712;2024-02-28T01:43:18;100834.53;;;12.55;69.79
55291;BME280;41155;39.768;2.712;2024-02-28T01:45:43;100825.22;;;12.40;70.17
55291;BME280;41155;39.768;2.712;2024-02-28T01:48:10;100831.53;;;12.51;71.11
55291;BME280;41155;39.768;2.712;2024-02-28T01:50:36;100837.53;;;12.53;71.81
55291;BME280;41155;39.768;2.712;2024-02-28T01:53:03;100838.53;;;12.42;72.67
55291;BME280;41155;39.768;2.712;2024-02-28T01:55:29;100837.97;;;12.40;72.84
55291;BME280;41155;39.768;2.712;2024-02-28T01:57:55;100840.91;;;12.33;73.42
55291;BME280;41155;39.768;2.712;2024-02-28T02:00:21;100835.81;;;12.42;73.68
55291;BME280;41155;39.768;2.712;2024-02-28T02:02:48;100848.78;;;12.40;73.00
55291;BME280;41155;39.768;2.712;2024-02-28T02:05:13;100836.06;;;12.35;73.70
55291;BME280;41155;39.768;2.712;2024-02-28T02:07:41;100834.84;;;12.21;73.08
55291;BME280;41155;39.768;2.712;2024-02-28T02:10:08;100828.88;;;12.19;73.49
55291;BME280;41155;39.768;2.712;2024-02-28T02:12:36;100842.75;;;12.28;72.50
55291;BME280;41155;39.768;2.712;2024-02-28T02:15:01;100843.84;;;12.32;72.60
55291;BME280;41155;39.768;2.712;2024-02-28T02:17:27;100848.47;;;12.31;72.82
55291;BME280;41155;39.768;2.712;2024-02-28T02:19:53;100846.97;;;12.13;72.93
55291;BME280;41155;39.768;2.712;2024-02-28T02:22:20;100850.25;;;12.20;73.42
55291;BME280;41155;39.768;2.712;2024-02-28T02:24:45;100857.06;;;12.23;73.68
55291;BME280;41155;39.768;2.712;2024-02-28T02:27:11;100860.31;;;12.25;73.65
55291;BME280;41155;39.768;2.712;2024-02-28T02:29:36;100865.44;;;12.21;73.38
55291;BME280;41155;39.768;2.712;2024-02-28T02:32:02;100857.56;;;12.20;73.62
55291;BME280;41155;39.768;2.712;2024-02-28T02:34:27;100865.50;;;12.27;74.15
55291;BME280;41155;39.768;2.712;2024-02-28T02:36:53;100857.50;;;12.10;74.41
55291;BME280;41155;39.768;2.712;2024-02-28T02:39:18;100875.88;;;12.08;74.28
55291;BME280;41155;39.768;2.712;2024-02-28T02:41:44;100860.91;;;12.00;74.93
55291;BME280;41155;39.768;2.712;2024-02-28T02:44:09;100869.25;;;11.93;76.02
55291;BME280;41155;39.768;2.712;2024-02-28T02:46:35;100872.22;;;11.92;76.50
55291;BME280;41155;39.768;2.712;2024-02-28T02:49:00;100876.91;;;12.02;76.90
55291;BME280;41155;39.768;2.712;2024-02-28T02:51:26;100867.16;;;12.01;77.69
55291;BME280;41155;39.768;2.712;2024-02-28T02:53:51;100873.59;;;11.94;78.59
55291;BME280;41155;39.768;2.712;2024-02-28T02:56:18;100880.38;;;11.97;79.23
55291;BME280;41155;39.768;2.712;2024-02-28T02:58:44;100871.72;;;11.95;79.58
55291;BME280;41155;39.768;2.712;2024-02-28T03:01:09;100889.34;;;12.03;80.24
55291;BME280;41155;39.768;2.712;2024-02-28T03:03:35;100878.69;;;11.91;80.76
55291;BME280;41155;39.768;2.712;2024-02-28T03:06:03;100905.19;;;11.89;81.43
55291;BME280;41155;39.768;2.712;2024-02-28T03:08:30;100908.16;;;11.87;81.69
55291;BME280;41155;39.768;2.712;2024-02-28T03:10:55;100925.38;;;11.81;79.63
55291;BME280;41155;39.768;2.712;2024-02-28T03:13:21;100919.66;;;11.77;79.46
55291;BME280;41155;39.768;2.712;2024-02-28T03:15:47;100925.31;;;11.76;80.85
55291;BME280;41155;39.768;2.712;2024-02-28T03:18:12;100927.66;;;11.67;81.20
55291;BME280;41155;39.768;2.712;2024-02-28T03:20:38;100934.66;;;11.63;81.76
55291;BME280;41155;39.768;2.712;2024-02-28T03:23:05;100944.03;;;11.56;82.45
55291;BME280;41155;39.768;2.712;2024-02-28T03:25:33;100924.50;;;11.53;82.56
55291;BME280;41155;39.768;2.712;2024-02-28T03:27:59;100952.63;;;11.52;82.37
55291;BME280;41155;39.768;2.712;2024-02-28T03:30:26;100988.91;;;11.57;82.83
55291;BME280;41155;39.768;2.712;2024-02-28T03:32:52;100979.91;;;11.51;80.55
55291;BME280;41155;39.768;2.712;2024-02-28T03:35:17;101017.97;;;11.44;79.88
55291;BME280;41155;39.768;2.712;2024-02-28T03:37:43;101019.97;;;11.32;80.68
55291;BME280;41155;39.768;2.712;2024-02-28T03:40:08;101002.44;;;11.18;81.46
55291;BME280;41155;39.768;2.712;2024-02-28T03:42:34;100993.94;;;11.09;82.78
55291;BME280;41155;39.768;2.712;2024-02-28T03:44:59;100994.84;;;11.15;83.18
55291;BME280;41155;39.768;2.712;2024-02-28T03:47:25;101001.16;;;11.03;83.70
55291;BME280;41155;39.768;2.712;2024-02-28T03:49:51;100997.88;;;11.01;84.16
55291;BME280;41155;39.768;2.712;2024-02-28T03:52:16;100986.75;;;10.98;84.59
55291;BME280;41155;39.768;2.712;2024-02-28T03:54:43;100987.47;;;10.93;84.54
55291;BME280;41155;39.768;2.712;2024-02-28T03:57:08;100978.00;;;10.91;84.83
55291;BME280;41155;39.768;2.712;2024-02-28T03:59:34;100974.06;;;10.81;85.37
55291;BME280;41155;39.768;2.712;2024-02-28T04:01:59;100973.25;;;10.81;85.81
55291;BME280;41155;39.768;2.712;2024-02-28T04:04:25;100979.22;;;10.83;85.63
55291;BME280;41155;39.768;2.712;2024-02-28T04:06:51;100966.31;;;10.85;86.39
55291;BME280;41155;39.768;2.712;2024-02-28T04:09:17;100963.81;;;11.00;86.62
55291;BME280;41155;39.768;2.712;2024-02-28T04:11:42;100947.63;;;11.00;86.53
55291;BME280;41155;39.768;2.712;2024-02-28T04:14:08;100939.09;;;10.92;86.76
55291;BME280;41155;39.768;2.712;2024-02-28T04:16:34;100928.81;;;10.72;86.27
55291;BME280;41155;39.768;2.712;2024-02-28T04:18:59;100934.72;;;10.52;86.86
55291;BME280;41155;39.768;2.712;2024-02-28T04:21:25;100953.28;;;10.48;88.13
55291;BME280;41155;39.768;2.712;2024-02-28T04:23:50;100951.09;;;10.62;88.71
55291;BME280;41155;39.768;2.712;2024-02-28T04:26:16;100953.69;;;10.74;89.23
55291;BME280;41155;39.768;2.712;2024-02-28T04:28:42;100941.31;;;10.78;89.22
55291;BME280;41155;39.768;2.712;2024-02-28T04:31:07;100925.94;;;10.61;88.98
55291;BME280;41155;39.768;2.712;2024-02-28T04:33:35;100916.72;;;10.57;89.77
55291;BME280;41155;39.768;2.712;2024-02-28T04:36:01;100915.88;;;10.40;90.04
55291;BME280;41155;39.768;2.712;2024-02-28T04:38:27;100926.78;;;10.62;90.52
55291;BME280;41155;39.768;2.712;2024-02-28T04:40:52;100932.72;;;10.81;90.58
55291;BME280;41155;39.768;2.712;2024-02-28T04:43:18;100926.34;;;10.87;89.21
55291;BME280;41155;39.768;2.712;2024-02-28T04:45:44;100929.28;;;11.02;89.02
55291;BME280;41155;39.768;2.712;2024-02-28T04:48:09;100944.00;;;11.12;89.06
55291;BME280;41155;39.768;2.712;2024-02-28T04:50:35;100940.00;;;10.97;89.43
55291;BME280;41155;39.768;2.712;2024-02-28T04:53:00;100949.56;;;11.05;89.54
55291;BME280;41155;39.768;2.712;2024-02-28T04:55:26;100959.63;;;11.09;90.03
55291;BME280;41155;39.768;2.712;2024-02-28T04:57:52;100973.44;;;11.13;90.01
55291;BME280;41155;39.768;2.712;2024-02-28T05:00:17;100965.25;;;11.25;89.78
55291;BME280;41155;39.768;2.712;2024-02-28T05:02:43;100977.06;;;11.19;89.38
55291;BME280;41155;39.768;2.712;2024-02-28T05:05:08;100977.47;;;11.11;89.40
55291;BME280;41155;39.768;2.712;2024-02-28T05:07:34;100965.88;;;10.93;89.51
55291;BME280;41155;39.768;2.712;2024-02-28T05:10:00;100974.72;;;10.89;88.93
55291;BME280;41155;39.768;2.712;2024-02-28T05:12:25;100974.91;;;10.82;89.07
55291;BME280;41155;39.768;2.712;2024-02-28T05:14:50;100979.47;;;10.81;89.71
55291;BME280;41155;39.768;2.712;2024-02-28T05:17:16;100984.06;;;10.81;90.12
55291;BME280;41155;39.768;2.712;2024-02-28T05:19:42;100993.72;;;10.77;90.69
55291;BME280;41155;39.768;2.712;2024-02-28T05:22:08;100999.22;;;10.82;90.40
55291;BME280;41155;39.768;2.712;2024-02-28T05:24:36;100998.88;;;10.95;90.67
55291;BME280;41155;39.768;2.712;2024-02-28T05:27:02;100999.53;;;11.02;90.70
55291;BME280;41155;39.768;2.712;2024-02-28T05:29:27;101003.84;;;11.03;90.47
55291;BME280;41155;39.768;2.712;2024-02-28T05:31:53;100990.34;;;11.03;90.45
55291;BME280;41155;39.768;2.712;2024-02-28T05:34:19;100994.75;;;11.09;90.21
55291;BME280;41155;39.768;2.712;2024-02-28T05:36:45;100997.78;;;10.96;89.80
55291;BME280;41155;39.768;2.712;2024-02-28T05:39:10;101003.94;;;11.08;89.89
55291;BME280;41155;39.768;2.712;2024-02-28T05:41:36;101001.28;;;11.14;89.97
55291;BME280;41155;39.768;2.712;2024-02-28T05:44:01;100997.47;;;11.09;89.83
55291;BME280;41155;39.768;2.712;2024-02-28T05:46:27;101009.25;;;11.20;89.81
55291;BME280;41155;39.768;2.712;2024-02-28T05:48:52;101001.94;;;11.21;89.53
55291;BME280;41155;39.768;2.712;2024-02-28T05:51:18;100992.66;;;10.95;90.31
55291;BME280;41155;39.768;2.712;2024-02-28T05:53:44;100986.94;;;10.74;90.06
55291;BME280;41155;39.768;2.712;2024-02-28T05:56:10;100995.19;;;10.84;90.62
55291;BME280;41155;39.768;2.712;2024-02-28T05:58:39;100997.78;;;10.96;90.54
55291;BME280;41155;39.768;2.712;2024-02-28T06:01:05;100995.25;;;10.90;91.08
55291;BME280;41155;39.768;2.712;2024-02-28T06:03:32;101004.44;;;11.05;91.33
55291;BME280;41155;39.768;2.712;2024-02-28T06:05:58;101011.16;;;11.03;91.41
55291;BME280;41155;39.768;2.712;2024-02-28T06:08:23;101019.91;;;11.10;91.64
55291;BME280;41155;39.768;2.712;2024-02-28T06:10:49;101029.06;;;11.09;91.66
55291;BME280;41155;39.768;2.712;2024-02-28T06:13:14;101012.06;;;11.08;91.76
55291;BME280;41155;39.768;2.712;2024-02-28T06:15:40;101017.84;;;11.17;91.20
55291;BME280;41155;39.768;2.712;2024-02-28T06:18:06;101023.94;;;10.74;91.79
55291;BME280;41155;39.768;2.712;2024-02-28T06:20:31;101028.13;;;10.53;93.09
55291;BME280;41155;39.768;2.712;2024-02-28T06:22:57;101030.78;;;10.65;93.38
55291;BME280;41155;39.768;2.712;2024-02-28T06:25:22;101024.50;;;10.59;93.98
55291;BME280;41155;39.768;2.712;2024-02-28T06:27:49;101032.19;;;10.84;94.02
55291;BME280;41155;39.768;2.712;2024-02-28T06:30:15;101032.84;;;10.91;93.81
55291;BME280;41155;39.768;2.712;2024-02-28T06:32:42;101036.94;;;10.77;93.74
55291;BME280;41155;39.768;2.712;2024-02-28T06:35:08;101027.59;;;10.84;94.09
55291;BME280;41155;39.768;2.712;2024-02-28T06:37:34;101028.59;;;10.95;94.04
55291;BME280;41155;39.768;2.712;2024-02-28T06:40:00;101026.06;;;11.05;93.46
55291;BME280;41155;39.768;2.712;2024-02-28T06:42:25;101040.38;;;11.23;93.36
55291;BME280;41155;39.768;2.712;2024-02-28T06:44:51;101044.88;;;11.34;92.96
55291;BME280;41155;39.768;2.712;2024-02-28T06:47:17;101036.41;;;11.30;92.78
55291;BME280;41155;39.768;2.712;2024-02-28T06:49:43;101042.00;;;11.24;92.20
55291;BME280;41155;39.768;2.712;2024-02-28T06:52:09;101055.59;;;11.29;92.35
55291;BME280;41155;39.768;2.712;2024-02-28T06:54:35;101061.81;;;11.29;92.41
55291;BME280;41155;39.768;2.712;2024-02-28T06:57:00;101059.34;;;11.28;92.25
55291;BME280;41155;39.768;2.712;2024-02-28T06:59:27;101052.91;;;10.95;91.50
55291;BME280;41155;39.768;2.712;2024-02-28T07:01:53;101060.44;;;10.76;92.16
55291;BME280;41155;39.768;2.712;2024-02-28T07:04:18;101066.53;;;10.55;93.44
55291;BME280;41155;39.768;2.712;2024-02-28T07:06:44;101065.31;;;10.62;94.13
55291;BME280;41155;39.768;2.712;2024-02-28T07:09:10;101071.09;;;10.54;94.53
55291;BME280;41155;39.768;2.712;2024-02-28T07:11:37;101057.50;;;10.49;94.86
55291;BME280;41155;39.768;2.712;2024-02-28T07:14:03;101075.59;;;10.49;95.28
55291;BME280;41155;39.768;2.712;2024-02-28T07:16:29;101082.44;;;10.68;95.01
55291;BME280;41155;39.768;2.712;2024-02-28T07:18:55;101086.59;;;10.76;94.90
55291;BME280;41155;39.768;2.712;2024-02-28T07:21:20;101085.66;;;10.82;94.93
55291;BME280;41155;39.768;2.712;2024-02-28T07:23:45;101088.34;;;10.82;94.93
55291;BME280;41155;39.768;2.712;2024-02-28T07:26:18;101101.84;;;10.99;94.61
55291;BME280;41155;39.768;2.712;2024-02-28T07:28:43;101089.75;;;11.01;94.65
55291;BME280;41155;39.768;2.712;2024-02-28T07:31:16;101106.16;;;11.12;94.74
55291;BME280;41155;39.768;2.712;2024-02-28T07:33:41;101110.88;;;11.04;93.85
55291;BME280;41155;39.768;2.712;2024-02-28T07:36:07;101103.97;;;10.80;94.10
55291;BME280;41155;39.768;2.712;2024-02-28T07:38:32;101117.97;;;10.77;94.70
55291;BME280;41155;39.768;2.712;2024-02-28T07:40:58;101120.13;;;10.92;94.98
55291;BME280;41155;39.768;2.712;2024-02-28T07:43:24;101123.63;;;10.92;94.96
55291;BME280;41155;39.768;2.712;2024-02-28T07:45:49;101118.88;;;10.82;95.13
55291;BME280;41155;39.768;2.712;2024-02-28T07:48:15;101127.56;;;11.01;95.32
55291;BME280;41155;39.768;2.712;2024-02-28T07:50:44;101135.78;;;11.06;94.86
55291;BME280;41155;39.768;2.712;2024-02-28T07:53:09;101144.59;;;11.02;94.48
55291;BME280;41155;39.768;2.712;2024-02-28T07:55:35;101148.38;;;11.01;94.39
55291;BME280;41155;39.768;2.712;2024-02-28T07:58:00;101119.50;;;10.73;94.67
55291;BME280;41155;39.768;2.712;2024-02-28T08:00:26;101145.22;;;10.75;94.25
55291;BME280;41155;39.768;2.712;2024-02-28T08:02:51;101139.59;;;10.77;93.37
55291;BME280;41155;39.768;2.712;2024-02-28T08:05:17;101149.03;;;10.62;94.04
55291;BME280;41155;39.768;2.712;2024-02-28T08:07:43;101150.19;;;10.67;94.26
55291;BME280;41155;39.768;2.712;2024-02-28T08:10:09;101155.47;;;10.61;94.91
55291;BME280;41155;39.768;2.712;2024-02-28T08:12:36;101158.59;;;10.53;95.46
55291;BME280;41155;39.768;2.712;2024-02-28T08:15:05;101152.31;;;10.65;95.57
55291;BME280;41155;39.768;2.712;2024-02-28T08:17:30;101137.84;;;10.71;95.45
55291;BME280;41155;39.768;2.712;2024-02-28T08:19:56;101144.13;;;10.59;94.13
55291;BME280;41155;39.768;2.712;2024-02-28T08:22:21;101148.28;;;10.67;93.31
55291;BME280;41155;39.768;2.712;2024-02-28T08:24:51;101136.28;;;10.75;92.90
55291;BME280;41155;39.768;2.712;2024-02-28T08:27:16;101161.19;;;10.77;91.55
55291;BME280;41155;39.768;2.712;2024-02-28T08:29:42;101159.84;;;10.91;91.19
55291;BME280;41155;39.768;2.712;2024-02-28T08:32:10;101164.75;;;10.94;90.19
55291;BME280;41155;39.768;2.712;2024-02-28T08:34:36;101162.88;;;10.95;89.90
55291;BME280;41155;39.768;2.712;2024-02-28T08:37:02;101161.13;;;10.89;88.41
55291;BME280;41155;39.768;2.712;2024-02-28T08:39:27;101166.69;;;10.82;88.11
55291;BME280;41155;39.768;2.712;2024-02-28T08:41:53;101161.94;;;10.89;88.09
55291;BME280;41155;39.768;2.712;2024-02-28T08:44:19;101174.22;;;10.80;88.33
55291;BME280;41155;39.768;2.712;2024-02-28T08:46:46;101174.53;;;10.83;88.09
55291;BME280;41155;39.768;2.712;2024-02-28T08:49:13;101177.81;;;10.85;87.13
55291;BME280;41155;39.768;2.712;2024-02-28T08:51:38;101178.75;;;10.91;86.59
55291;BME280;41155;39.768;2.712;2024-02-28T08:54:05;101174.88;;;10.87;85.31
55291;BME280;41155;39.768;2.712;2024-02-28T08:56:31;101180.16;;;10.94;85.41
55291;BME280;41155;39.768;2.712;2024-02-28T08:58:56;101186.50;;;10.88;84.81
55291;BME280;41155;39.768;2.712;2024-02-28T09:01:22;101184.22;;;10.96;85.24
55291;BME280;41155;39.768;2.712;2024-02-28T09:03:47;101185.56;;;10.94;85.24
55291;BME280;41155;39.768;2.712;2024-02-28T09:06:13;101189.34;;;11.09;85.80
55291;BME280;41155;39.768;2.712;2024-02-28T09:08:39;101192.31;;;11.08;84.74
55291;BME280;41155;39.768;2.712;2024-02-28T09:11:04;101213.44;;;11.11;85.11
55291;BME280;41155;39.768;2.712;2024-02-28T09:13:31;101206.69;;;11.14;85.03
55291;BME280;41155;39.768;2.712;2024-02-28T09:15:56;101224.41;;;11.21;84.06
55291;BME280;41155;39.768;2.712;2024-02-28T09:18:23;101220.63;;;11.22;83.79
55291;BME280;41155;39.768;2.712;2024-02-28T09:20:48;101225.00;;;11.23;82.95
55291;BME280;41155;39.768;2.712;2024-02-28T09:23:14;101215.88;;;11.13;82.84
55291;BME280;41155;39.768;2.712;2024-02-28T09:25:39;101229.50;;;11.18;82.04
55291;BME280;41155;39.768;2.712;2024-02-28T09:28:05;101224.38;;;11.04;82.57
55291;BME280;41155;39.768;2.712;2024-02-28T09:30:31;101240.03;;;11.02;83.19
55291;BME280;41155;39.768;2.712;2024-02-28T09:32:56;101247.88;;;11.04;83.38
55291;BME280;41155;39.768;2.712;2024-02-28T09:35:22;101254.91;;;11.05;83.69
55291;BME280;41155;39.768;2.712;2024-02-28T09:37:47;101253.13;;;11.11;84.42
55291;BME280;41155;39.768;2.712;2024-02-28T09:40:13;101227.19;;;11.09;84.05
55291;BME280;41155;39.768;2.712;2024-02-28T09:42:39;101237.50;;;11.13;84.86
55291;BME280;41155;39.768;2.712;2024-02-28T09:45:06;101227.94;;;11.22;84.92
55291;BME280;41155;39.768;2.712;2024-02-28T09:47:33;101231.72;;;11.21;84.35
55291;BME280;41155;39.768;2.712;2024-02-28T09:50:00;101250.63;;;11.21;83.85
55291;BME280;41155;39.768;2.712;2024-02-28T09:52:26;101239.22;;;11.19;83.75
55291;BME280;41155;39.768;2.712;2024-02-28T09:54:55;101246.53;;;11.18;83.69
55291;BME280;41155;39.768;2.712;2024-02-28T09:57:21;101254.88;;;11.17;83.82
55291;BME280;41155;39.768;2.712;2024-02-28T09:59:55;101257.19;;;11.25;83.74
55291;BME280;41155;39.768;2.712;2024-02-28T10:02:23;101240.88;;;11.20;84.69
55291;BME280;41155;39.768;2.712;2024-02-28T10:04:50;101243.00;;;11.18;84.50
55291;BME280;41155;39.768;2.712;2024-02-28T10:07:17;101240.78;;;11.15;83.92
55291;BME280;41155;39.768;2.712;2024-02-28T10:09:43;101241.28;;;11.12;83.73
55291;BME280;41155;39.768;2.712;2024-02-28T10:12:09;101238.78;;;11.10;84.21
55291;BME280;41155;39.768;2.712;2024-02-28T10:14:35;101238.09;;;11.15;85.06
55291;BME280;41155;39.768;2.712;2024-02-28T10:17:00;101234.91;;;11.18;85.21
55291;BME280;41155;39.768;2.712;2024-02-28T10:19:26;101233.09;;;11.23;84.82
55291;BME280;41155;39.768;2.712;2024-02-28T10:21:52;101235.22;;;11.21;84.60
55291;BME280;41155;39.768;2.712;2024-02-28T10:24:18;101240.47;;;11.11;83.71
55291;BME280;41155;39.768;2.712;2024-02-28T10:26:47;101249.81;;;11.20;83.47
55291;BME280;41155;39.768;2.712;2024-02-28T10:29:23;101251.13;;;11.18;83.43
55291;BME280;41155;39.768;2.712;2024-02-28T10:31:50;101269.59;;;11.09;83.72
55291;BME280;41155;39.768;2.712;2024-02-28T10:34:17;101275.34;;;11.13;84.53
55291;BME280;41155;39.768;2.712;2024-02-28T10:36:43;101278.16;;;11.18;85.21
55291;BME280;41155;39.768;2.712;2024-02-28T10:39:11;101268.16;;;11.18;84.93
55291;BME280;41155;39.768;2.712;2024-02-28T10:41:38;101272.16;;;11.16;84.78
55291;BME280;41155;39.768;2.712;2024-02-28T10:44:04;101267.91;;;11.20;84.81
55291;BME280;41155;39.768;2.712;2024-02-28T10:46:31;101276.59;;;11.22;84.20
55291;BME280;41155;39.768;2.712;2024-02-28T10:48:56;101281.03;;;11.28;84.33
55291;BME280;41155;39.768;2.712;2024-02-28T10:51:26;101286.34;;;11.23;84.81
55291;BME280;41155;39.768;2.712;2024-02-28T10:54:11;101278.09;;;11.29;84.19
55291;BME280;41155;39.768;2.712;2024-02-28T10:56:41;101253.66;;;11.24;83.95
55291;BME280;41155;39.768;2.712;2024-02-28T10:59:10;101282.28;;;11.37;84.45
55291;BME280;41155;39.768;2.712;2024-02-28T11:01:39;101288.75;;;11.36;84.50
55291;BME280;41155;39.768;2.712;2024-02-28T11:04:09;101286.31;;;11.35;85.08
55291;BME280;41155;39.768;2.712;2024-02-28T11:06:35;101294.75;;;11.38;84.66
55291;BME280;41155;39.768;2.712;2024-02-28T11:09:03;101296.19;;;11.29;85.54
55291;BME280;41155;39.768;2.712;2024-02-28T11:11:31;101305.28;;;11.23;85.42
55291;BME280;41155;39.768;2.712;2024-02-28T11:13:58;101300.34;;;11.20;85.22
55291;BME280;41155;39.768;2.712;2024-02-28T11:16:33;101301.59;;;11.29;85.31
55291;BME280;41155;39.768;2.712;2024-02-28T11:19:01;101300.31;;;11.31;85.34
55291;BME280;41155;39.768;2.712;2024-02-28T11:21:34;101302.66;;;11.28;85.70
55291;BME280;41155;39.768;2.712;2024-02-28T11:24:00;101294.78;;;11.26;86.16
55291;BME280;41155;39.768;2.712;2024-02-28T11:26:27;101286.91;;;11.25;86.48
55291;BME280;41155;39.768;2.712;2024-02-28T11:28:56;101302.28;;;11.36;86.69
55291;BME280;41155;39.768;2.712;2024-02-28T11:31:22;101292.53;;;11.35;86.32
55291;BME280;41155;39.768;2.712;2024-02-28T11:33:47;101284.69;;;11.22;85.99
55291;BME280;41155;39.768;2.712;2024-02-28T11:36:13;101303.38;;;11.23;85.88
55291;BME280;41155;39.768;2.712;2024-02-28T11:38:40;101299.63;;;11.24;85.74
55291;BME280;41155;39.768;2.712;2024-02-28T11:41:06;101313.47;;;11.28;86.12
55291;BME280;41155;39.768;2.712;2024-02-28T11:43:32;101312.91;;;11.26;86.74
55291;BME280;41155;39.768;2.712;2024-02-28T11:45:58;101307.81;;;11.29;86.37
55291;BME280;41155;39.768;2.712;2024-02-28T11:48:25;101293.72;;;11.27;85.91
55291;BME280;41155;39.768;2.712;2024-02-28T11:50:53;101276.97;;;11.14;85.86
55291;BME280;41155;39.768;2.712;2024-02-28T11:53:19;101299.75;;;11.18;86.16
55291;BME280;41155;39.768;2.712;2024-02-28T11:55:48;101316.41;;;11.26;86.81
55291;BME280;41155;39.768;2.712;2024-02-28T11:58:14;101325.59;;;11.25;86.52
55291;BME280;41155;39.768;2.712;2024-02-28T12:00:49;101330.16;;;11.25;86.92
55291;BME280;41155;39.768;2.712;2024-02-28T12:03:25;101334.72;;;11.36;86.95
55291;BME280;41155;39.768;2.712;2024-02-28T12:05:55;101309.56;;;11.36;86.92
55291;BME280;41155;39.768;2.712;2024-02-28T12:08:20;101288.38;;;11.16;86.91
55291;BME280;41155;39.768;2.712;2024-02-28T12:10:47;101315.88;;;11.41;87.09
55291;BME280;41155;39.768;2.712;2024-02-28T12:13:17;101321.13;;;11.48;86.70
55291;BME280;41155;39.768;2.712;2024-02-28T12:15:43;101307.97;;;11.51;86.48
55291;BME280;41155;39.768;2.712;2024-02-28T12:18:09;101294.41;;;11.35;84.44
55291;BME280;41155;39.768;2.712;2024-02-28T12:20:37;101326.06;;;11.51;84.53
55291;BME280;41155;39.768;2.712;2024-02-28T12:23:05;101318.88;;;11.57;84.29
55291;BME280;41155;39.768;2.712;2024-02-28T12:25:33;101315.78;;;11.65;84.43
55291;BME280;41155;39.768;2.712;2024-02-28T12:28:00;101301.97;;;11.49;83.95
55291;BME280;41155;39.768;2.712;2024-02-28T12:30:26;101306.81;;;11.47;82.48
55291;BME280;41155;39.768;2.712;2024-02-28T12:32:51;101305.19;;;11.46;82.47
55291;BME280;41155;39.768;2.712;2024-02-28T12:35:17;101290.00;;;11.45;82.01
55291;BME280;41155;39.768;2.712;2024-02-28T12:37:42;101285.91;;;11.43;81.89
55291;BME280;41155;39.768;2.712;2024-02-28T12:40:08;101272.53;;;11.36;81.93
55291;BME280;41155;39.768;2.712;2024-02-28T12:42:33;101283.63;;;11.51;82.61
55291;BME280;41155;39.768;2.712;2024-02-28T12:45:00;101269.28;;;11.51;82.09